Time;durP1;ratioP1;P1;durP2;ratioP2;P2;SDS_P1;SDS_P2;PMS_P1;PMS_P2;Temp;Humidity;BMP_temperature;BMP_pressure;BME280_temperature;BME280_humidity;BME280_pressure;Samples;Min_cycle;Max_cycle;Signal;HPM_P1;HPM_P2
2023/08/29 00:00:19;;;;;;;3.38;2.88;;;13.90;99.90;;;;;;5136925;27;20043;-75
2023/08/29 00:02:45;;;;;;;3.22;2.80;;;13.90;99.90;;;;;;5136306;27;20048;-75
2023/08/29 00:05:12;;;;;;;3.22;2.90;;;13.80;99.90;;;;;;5118507;27;20069;-78
2023/08/29 00:07:38;;;;;;;2.92;2.45;;;13.80;99.90;;;;;;5136718;27;20498;-76
2023/08/29 00:10:04;;;;;;;2.80;2.45;;;13.70;99.90;;;;;;5136585;27;20490;-77
2023/08/29 00:12:32;;;;;;;4.80;2.53;;;13.70;99.90;;;;;;5137013;27;20387;-76
2023/08/29 00:14:58;;;;;;;4.95;2.90;;;13.60;99.90;;;;;;5136839;27;20043;-76
2023/08/29 00:17:24;;;;;;;4.63;2.97;;;13.60;99.90;;;;;;5118693;27;20066;-77
2023/08/29 00:19:50;;;;;;;3.83;3.33;;;13.50;99.90;;;;;;5136761;27;20130;-75
2023/08/29 00:22:16;;;;;;;4.22;3.45;;;13.50;99.90;;;;;;5136394;27;20147;-75
2023/08/29 00:24:44;;;;;;;4.03;2.88;;;13.40;99.90;;;;;;5136573;27;20050;-75
2023/08/29 00:27:12;;;;;;;4.38;3.85;;;13.40;99.90;;;;;;5137346;27;20079;-75
2023/08/29 00:29:38;;;;;;;3.53;2.75;;;13.40;99.90;;;;;;5137127;27;20083;-77
2023/08/29 00:32:04;;;;;;;3.50;3.00;;;13.30;99.90;;;;;;5137980;27;20063;-77
2023/08/29 00:34:30;;;;;;;4.93;2.53;;;13.30;99.90;;;;;;5136713;27;20043;-75
2023/08/29 00:36:56;;;;;;;4.95;2.22;;;13.20;99.90;;;;;;5136286;27;20088;-76
2023/08/29 00:39:22;;;;;;;2.72;2.50;;;13.20;99.90;;;;;;5136236;27;20111;-77
2023/08/29 00:41:49;;;;;;;3.22;2.63;;;13.10;99.90;;;;;;5101590;27;20412;-75
2023/08/29 00:44:17;;;;;;;2.92;2.63;;;13.00;99.90;;;;;;5136037;27;20043;-74
2023/08/29 00:46:45;;;;;;;3.38;2.28;;;13.00;99.90;;;;;;5118115;27;20058;-77
2023/08/29 00:49:13;;;;;;;3.22;2.30;;;13.00;99.90;;;;;;5136062;27;20502;-74
2023/08/29 00:51:39;;;;;;;2.15;1.90;;;13.00;99.90;;;;;;5136323;27;20074;-75
2023/08/29 00:54:07;;;;;;;4.25;2.78;;;13.00;99.90;;;;;;5135824;27;20049;-75
2023/08/29 00:56:33;;;;;;;5.50;3.08;;;12.90;99.90;;;;;;5135364;27;20082;-78
2023/08/29 00:59:01;;;;;;;3.50;3.20;;;12.90;99.90;;;;;;5117718;27;20047;-75
2023/08/29 01:01:28;;;;;;;4.47;3.15;;;12.90;99.90;;;;;;5135926;27;20089;-75
2023/08/29 01:03:54;;;;;;;3.08;2.80;;;12.90;99.90;;;;;;5135949;27;20051;-77
2023/08/29 01:06:20;;;;;;;4.38;2.85;;;12.90;99.90;;;;;;5135566;27;20126;-76
2023/08/29 01:08:46;;;;;;;3.25;2.75;;;12.90;99.90;;;;;;5136006;27;20571;-74
2023/08/29 01:11:50;;;;;;;5.07;3.42;;;12.90;99.90;;;;;;5135527;27;20049;-75
2023/08/29 01:14:18;;;;;;;;;;;12.90;99.90;;;;;;5118005;27;20062;-75
2023/08/29 01:16:54;;;;;;;4.53;3.05;;;12.80;99.90;;;;;;5117370;27;19964;-78
2023/08/29 01:19:22;;;;;;;2.88;2.67;;;12.80;99.90;;;;;;5136040;27;20039;-74
2023/08/29 01:21:54;;;;;;;2.75;2.25;;;12.80;99.90;;;;;;5135513;27;20126;-76
2023/08/29 01:25:04;;;;;;;3.97;2.60;;;12.80;99.90;;;;;;5135083;27;20549;-78
2023/08/29 01:27:30;;;;;;;3.38;3.08;;;12.80;99.90;;;;;;5053892;27;20138;-74
2023/08/29 01:29:57;;;;;;;4.45;3.40;;;12.70;99.90;;;;;;5135245;27;20082;-75
2023/08/29 01:32:24;;;;;;;3.33;3.03;;;12.70;99.90;;;;;;5135591;27;20124;-78
2023/08/29 01:34:51;;;;;;;4.47;3.53;;;12.70;99.90;;;;;;5134977;27;20039;-74
2023/08/29 01:37:17;;;;;;;5.00;3.53;;;12.60;99.90;;;;;;5134275;27;20529;-76
2023/08/29 01:39:43;;;;;;;3.90;3.17;;;12.60;99.90;;;;;;5134586;27;20039;-74
2023/08/29 01:42:08;;;;;;;4.35;3.13;;;12.60;99.90;;;;;;5134838;27;20050;-75
2023/08/29 01:44:34;;;;;;;3.53;3.22;;;12.60;99.90;;;;;;5134658;27;20043;-77
2023/08/29 01:47:00;;;;;;;5.82;3.13;;;12.60;99.90;;;;;;5134752;27;20055;-77
2023/08/29 01:49:26;;;;;;;4.80;3.42;;;12.50;99.90;;;;;;5116597;27;20074;-75
2023/08/29 01:51:51;;;;;;;6.22;3.25;;;12.40;99.90;;;;;;5135072;27;20050;-77
2023/08/29 01:54:18;;;;;;;4.05;3.10;;;12.40;99.90;;;;;;5134474;27;20039;-77
2023/08/29 01:56:46;;;;;;;3.08;2.78;;;12.40;99.90;;;;;;5135232;27;20053;-77
2023/08/29 01:59:11;;;;;;;5.90;3.15;;;12.30;99.90;;;;;;5116833;27;20056;-76
2023/08/29 02:01:38;;;;;;;3.65;3.22;;;12.30;99.90;;;;;;5134487;27;20121;-76
2023/08/29 02:04:04;;;;;;;5.18;2.58;;;12.30;99.90;;;;;;5116136;27;20444;-76
2023/08/29 02:06:30;;;;;;;3.42;3.13;;;12.30;99.90;;;;;;5133851;27;20122;-76
2023/08/29 02:08:55;;;;;;;3.20;2.90;;;12.30;99.90;;;;;;5134240;27;20047;-74
2023/08/29 02:11:21;;;;;;;5.03;2.92;;;12.30;99.90;;;;;;5134101;27;20047;-77
2023/08/29 02:13:47;;;;;;;4.05;2.72;;;12.20;99.90;;;;;;5134034;27;20046;-76
2023/08/29 02:16:12;;;;;;;4.20;3.00;;;12.20;99.90;;;;;;5115751;27;20039;-75
2023/08/29 02:18:39;;;;;;;3.22;2.88;;;12.10;99.90;;;;;;5133977;27;20039;-78
2023/08/29 02:21:04;;;;;;;3.75;3.33;;;12.10;99.90;;;;;;5115749;27;20047;-73
2023/08/29 02:23:31;;;;;;;4.93;3.65;;;12.00;99.90;;;;;;5099039;27;20108;-77
2023/08/29 02:26:03;;;;;;;5.13;3.72;;;12.00;99.90;;;;;;5134119;27;20055;-78
2023/08/29 02:28:37;;;;;;;6.13;3.35;;;12.00;99.90;;;;;;5134434;27;20039;-76
2023/08/29 02:31:04;;;;;;;4.10;3.40;;;12.00;99.90;;;;;;5098399;27;20043;-76
2023/08/29 02:33:30;;;;;;;4.95;3.08;;;12.00;99.90;;;;;;5133672;27;20051;-76
2023/08/29 02:35:56;;;;;;;5.38;3.20;;;12.00;99.90;;;;;;5133711;27;20525;-78
2023/08/29 02:38:22;;;;;;;3.83;3.03;;;12.00;99.90;;;;;;5134241;27;20130;-76
2023/08/29 02:40:47;;;;;;;3.75;3.08;;;12.00;99.90;;;;;;5133925;27;20079;-78
2023/08/29 02:43:13;;;;;;;2.75;2.55;;;12.00;99.90;;;;;;5133931;27;20039;-76
2023/08/29 02:45:39;;;;;;;3.70;2.85;;;11.90;99.90;;;;;;5133536;27;20039;-76
2023/08/29 02:48:05;;;;;;;3.20;2.90;;;11.80;99.90;;;;;;5133841;27;20085;-76
2023/08/29 02:50:32;;;;;;;5.00;3.30;;;11.80;99.90;;;;;;5133869;27;20047;-76
2023/08/29 02:52:58;;;;;;;3.00;2.70;;;11.70;99.90;;;;;;5115873;27;20480;-75
2023/08/29 02:55:23;;;;;;;3.58;3.25;;;11.70;99.90;;;;;;5133782;27;20039;-77
2023/08/29 02:57:49;;;;;;;3.55;2.53;;;11.70;99.90;;;;;;5134046;27;20387;-76
2023/08/29 03:00:15;;;;;;;3.65;3.08;;;11.70;99.90;;;;;;5116068;27;20086;-76
2023/08/29 03:02:42;;;;;;;4.78;3.35;;;11.70;99.90;;;;;;5133948;27;20043;-75
2023/08/29 03:05:08;;;;;;;4.93;2.80;;;11.70;99.90;;;;;;5133921;28;20046;-75
2023/08/29 03:07:34;;;;;;;2.85;2.20;;;11.60;99.90;;;;;;5136938;28;20095;-78
2023/08/29 03:09:59;;;;;;;2.38;2.17;;;11.60;99.90;;;;;;5098304;28;20510;-75
2023/08/29 03:12:25;;;;;;;2.85;2.40;;;11.50;99.90;;;;;;5133499;28;20086;-75
2023/08/29 03:14:54;;;;;;;3.55;3.10;;;11.50;99.90;;;;;;5133681;28;20043;-75
2023/08/29 03:17:21;;;;;;;2.92;2.63;;;11.50;99.90;;;;;;5133413;27;20051;-75
2023/08/29 03:19:47;;;;;;;3.30;3.00;;;11.50;99.90;;;;;;5137289;27;20103;-77
2023/08/29 03:22:13;;;;;;;2.47;2.28;;;11.50;99.90;;;;;;5137838;27;20129;-74
2023/08/29 03:24:40;;;;;;;3.95;2.63;;;11.50;99.90;;;;;;5138168;27;20039;-76
2023/08/29 03:27:05;;;;;;;2.55;2.35;;;11.40;99.90;;;;;;5137658;27;20039;-75
2023/08/29 03:29:31;;;;;;;3.72;3.38;;;11.40;99.90;;;;;;5138496;27;20043;-73
2023/08/29 03:31:57;;;;;;;3.05;2.83;;;11.40;99.90;;;;;;5137918;27;20475;-77
2023/08/29 03:34:23;;;;;;;4.63;2.70;;;11.30;99.90;;;;;;5137410;27;20051;-78
2023/08/29 03:36:48;;;;;;;3.63;3.28;;;11.30;99.90;;;;;;5137501;27;20077;-78
2023/08/29 03:39:14;;;;;;;7.25;4.18;;;11.30;99.90;;;;;;5137356;27;20054;-78
2023/08/29 03:41:39;;;;;;;4.47;4.07;;;11.40;99.90;;;;;;5137399;27;20046;-78
2023/08/29 03:44:05;;;;;;;4.80;4.35;;;11.40;99.90;;;;;;5119045;27;20209;-77
2023/08/29 03:46:31;;;;;;;5.63;4.28;;;11.50;99.90;;;;;;5137487;27;20039;-77
2023/08/29 03:48:57;;;;;;;5.22;3.38;;;11.50;99.90;;;;;;5137664;27;20540;-77
2023/08/29 03:51:23;;;;;;;5.07;4.10;;;11.40;99.90;;;;;;5137191;27;20096;-78
2023/08/29 03:53:48;;;;;;;3.60;3.30;;;11.40;99.90;;;;;;5137467;27;20479;-79
2023/08/29 03:56:15;;;;;;;5.65;3.72;;;11.40;99.90;;;;;;5118989;27;20126;-78
2023/08/29 03:58:40;;;;;;;4.15;3.72;;;11.40;99.90;;;;;;5118740;27;20543;-78
2023/08/29 04:01:07;;;;;;;3.90;3.50;;;11.40;99.90;;;;;;5137004;27;20075;-78
2023/08/29 04:03:33;;;;;;;4.78;4.18;;;11.40;99.90;;;;;;5137235;27;20054;-78
2023/08/29 04:05:59;;;;;;;3.00;2.80;;;11.40;99.90;;;;;;5137529;27;20039;-78
2023/08/29 04:08:25;;;;;;;5.22;3.90;;;11.40;99.90;;;;;;5137337;27;20095;-77
2023/08/29 04:10:51;;;;;;;6.43;3.58;;;11.40;99.90;;;;;;5137969;27;20121;-78
2023/08/29 04:13:17;;;;;;;4.53;4.10;;;11.40;99.90;;;;;;5137822;27;20503;-78
2023/08/29 04:15:43;;;;;;;4.68;3.75;;;11.40;99.90;;;;;;5137419;27;20060;-77
2023/08/29 04:18:09;;;;;;;5.22;4.25;;;11.40;99.90;;;;;;5137268;27;20043;-78
2023/08/29 04:20:35;;;;;;;4.53;4.00;;;11.40;99.90;;;;;;5136924;27;20047;-78
2023/08/29 04:23:03;;;;;;;4.75;3.42;;;11.30;99.90;;;;;;5118426;27;20112;-78
2023/08/29 04:25:30;;;;;;;5.53;4.10;;;11.20;99.90;;;;;;5137245;27;20046;-78
2023/08/29 04:27:56;;;;;;;4.03;3.63;;;11.20;99.90;;;;;;5136580;27;20403;-78
2023/08/29 04:30:22;;;;;;;4.50;3.50;;;11.30;99.90;;;;;;5136502;27;20047;-79
2023/08/29 04:32:48;;;;;;;6.20;3.75;;;11.70;99.90;;;;;;5136544;27;20078;-78
2023/08/29 04:35:14;;;;;;;4.82;3.97;;;11.20;99.90;;;;;;5136605;27;20039;-78
2023/08/29 04:37:43;;;;;;;4.53;3.78;;;11.30;99.90;;;;;;5118111;27;20404;-78
2023/08/29 04:40:10;;;;;;;5.32;3.90;;;11.30;99.90;;;;;;5136907;27;20047;-78
2023/08/29 04:42:40;;;;;;;5.10;3.20;;;11.30;99.90;;;;;;5135931;27;20525;-78
2023/08/29 04:45:07;;;;;;;4.93;3.17;;;11.20;99.90;;;;;;5136795;27;20035;-78
2023/08/29 04:47:34;;;;;;;3.70;3.30;;;11.20;99.90;;;;;;5118524;27;20047;-78
2023/08/29 04:50:00;;;;;;;3.28;2.65;;;11.10;99.90;;;;;;5136113;27;20459;-78
2023/08/29 04:52:27;;;;;;;4.35;3.80;;;11.10;99.90;;;;;;5136472;27;20114;-77
2023/08/29 04:54:53;;;;;;;5.03;3.75;;;11.10;99.90;;;;;;5136388;27;20155;-78
2023/08/29 04:57:20;;;;;;;3.92;3.40;;;11.00;99.90;;;;;;5136060;27;20059;-78
2023/08/29 04:59:46;;;;;;;4.68;3.33;;;11.00;99.90;;;;;;5135595;27;20491;-78
2023/08/29 05:02:12;;;;;;;4.78;3.47;;;11.00;99.90;;;;;;5135799;27;20039;-79
2023/08/29 05:04:38;;;;;;;3.17;2.88;;;11.00;99.90;;;;;;5136318;27;20126;-78
2023/08/29 05:07:04;;;;;;;4.57;3.13;;;11.00;99.90;;;;;;5136163;27;20043;-78
2023/08/29 05:09:29;;;;;;;3.83;3.13;;;11.00;99.90;;;;;;5136090;27;20039;-78
2023/08/29 05:11:55;;;;;;;4.53;3.15;;;11.10;99.90;;;;;;5135562;27;20391;-78
2023/08/29 05:14:21;;;;;;;3.88;3.08;;;11.10;99.90;;;;;;5135911;27;20038;-77
2023/08/29 05:16:46;;;;;;;4.60;3.25;;;11.10;99.90;;;;;;5117105;27;20051;-78
2023/08/29 05:19:12;;;;;;;5.60;3.75;;;11.10;99.90;;;;;;5135984;27;20047;-78
2023/08/29 05:21:38;;;;;;;4.05;3.50;;;11.10;99.90;;;;;;5135075;27;20534;-77
2023/08/29 05:24:06;;;;;;;3.65;2.97;;;11.10;99.90;;;;;;5135261;27;20055;-78
2023/08/29 05:26:31;;;;;;;3.65;3.30;;;11.10;99.90;;;;;;5100069;27;20096;-77
2023/08/29 05:28:57;;;;;;;4.15;3.75;;;11.20;99.90;;;;;;5117222;27;20413;-78
2023/08/29 05:31:23;;;;;;;3.72;3.05;;;11.20;99.90;;;;;;5117218;27;20043;-78
2023/08/29 05:33:48;;;;;;;4.28;3.05;;;11.20;99.90;;;;;;5134792;27;20093;-80
2023/08/29 05:36:14;;;;;;;3.38;3.08;;;11.30;99.90;;;;;;5134939;27;20039;-77
2023/08/29 05:38:40;;;;;;;4.55;3.33;;;11.30;99.90;;;;;;5134908;27;20482;-75
2023/08/29 05:41:05;;;;;;;4.22;3.05;;;11.40;99.90;;;;;;5134252;27;20464;-74
2023/08/29 05:43:31;;;;;;;4.05;2.88;;;11.40;99.90;;;;;;5135169;27;20453;-74
2023/08/29 05:45:57;;;;;;;5.57;2.50;;;11.40;99.90;;;;;;5116143;27;20047;-75
2023/08/29 05:48:23;;;;;;;3.65;2.53;;;11.40;99.90;;;;;;5116551;27;20084;-74
2023/08/29 05:50:52;;;;;;;3.72;3.35;;;11.40;99.90;;;;;;5134524;27;20327;-74
2023/08/29 05:53:18;;;;;;;3.90;2.60;;;11.50;99.90;;;;;;5116049;27;20180;-77
2023/08/29 05:55:45;;;;;;;4.32;3.00;;;11.50;99.90;;;;;;5134617;27;20039;-75
2023/08/29 05:58:10;;;;;;;4.00;3.22;;;11.60;99.90;;;;;;5134372;27;20047;-75
2023/08/29 06:00:37;;;;;;;3.45;3.15;;;11.60;99.90;;;;;;5134550;27;20127;-74
2023/08/29 06:03:04;;;;;;;2.83;2.55;;;11.60;99.90;;;;;;5134446;27;20069;-74
2023/08/29 06:05:31;;;;;;;3.17;2.40;;;11.70;99.90;;;;;;5116351;27;20425;-74
2023/08/29 06:08:01;;;;;;;3.88;2.90;;;11.70;99.90;;;;;;5134135;27;20051;-76
2023/08/29 06:10:28;;;;;;;3.20;2.83;;;11.80;99.90;;;;;;5133721;27;20488;-74
2023/08/29 06:12:54;;;;;;;3.50;3.20;;;11.80;99.90;;;;;;5116754;27;20429;-74
2023/08/29 06:15:21;;;;;;;3.95;2.95;;;11.90;99.90;;;;;;5115848;27;20047;-73
2023/08/29 06:17:46;;;;;;;3.35;2.83;;;12.00;99.90;;;;;;5134042;27;20051;-74
2023/08/29 06:20:13;;;;;;;5.78;3.55;;;12.00;99.90;;;;;;5133974;27;20414;-74
2023/08/29 06:22:38;;;;;;;5.07;3.10;;;12.10;99.90;;;;;;5134243;27;20452;-76
2023/08/29 06:25:05;;;;;;;3.85;3.30;;;12.20;99.90;;;;;;5133895;27;20172;-75
2023/08/29 06:27:30;;;;;;;4.57;3.83;;;12.30;99.90;;;;;;5134034;27;20176;-73
2023/08/29 06:29:56;;;;;;;5.30;3.85;;;12.50;99.90;;;;;;5133893;27;20096;-73
2023/08/29 06:32:22;;;;;;;4.68;4.03;;;12.60;99.90;;;;;;5133966;27;20043;-77
2023/08/29 06:34:48;;;;;;;6.50;4.35;;;12.70;99.90;;;;;;5133771;27;20051;-75
2023/08/29 06:37:14;;;;;;;8.10;4.28;;;12.90;99.90;;;;;;5134291;27;20046;-75
2023/08/29 06:39:40;;;;;;;5.00;3.85;;;13.10;99.90;;;;;;5134115;27;20043;-74
2023/08/29 06:42:06;;;;;;;5.07;3.60;;;13.30;99.90;;;;;;5133840;27;20151;-74
2023/08/29 06:44:32;;;;;;;3.03;2.65;;;13.40;99.90;;;;;;5133668;27;20043;-75
2023/08/29 06:46:57;;;;;;;5.85;3.67;;;13.60;99.90;;;;;;5133793;27;20108;-74
2023/08/29 06:49:23;;;;;;;3.08;2.70;;;13.80;99.90;;;;;;5133716;27;20050;-75
2023/08/29 06:51:50;;;;;;;2.95;2.38;;;13.90;99.90;;;;;;5133735;27;20085;-74
2023/08/29 06:54:15;;;;;;;3.20;2.40;;;14.10;99.90;;;;;;5134172;27;20047;-73
2023/08/29 06:56:41;;;;;;;4.75;2.05;;;14.30;99.90;;;;;;5133764;27;20410;-75
2023/08/29 06:59:07;;;;;;;2.42;2.13;;;14.50;99.90;;;;;;5133869;27;20047;-74
2023/08/29 07:01:33;;;;;;;4.13;1.98;;;14.60;99.90;;;;;;5133509;27;20039;-74
2023/08/29 07:03:59;;;;;;;2.38;2.17;;;14.80;99.90;;;;;;5133824;27;20092;-75
2023/08/29 07:06:25;;;;;;;2.00;1.83;;;15.00;99.90;;;;;;5133262;27;20043;-73
2023/08/29 07:08:51;;;;;;;2.60;2.13;;;15.20;99.90;;;;;;5133411;27;20039;-80
2023/08/29 07:11:17;;;;;;;2.60;2.33;;;15.50;99.90;;;;;;5134082;28;20115;-79
2023/08/29 07:13:43;;;;;;;1.63;1.52;;;15.90;99.90;;;;;;5082064;28;20062;-81
2023/08/29 07:16:09;;;;;;;2.38;1.65;;;16.80;99.90;;;;;;5133038;28;20391;-74
2023/08/29 07:18:34;;;;;;;1.98;1.50;;;18.30;99.90;;;;;;5133835;28;20039;-81
2023/08/29 07:21:01;;;;;;;3.70;1.75;;;19.60;99.90;;;;;;5133398;28;20082;-79
2023/08/29 07:23:28;;;;;;;2.22;1.33;;;20.70;99.90;;;;;;5110915;28;20107;-83
2023/08/29 07:25:53;;;;;;;2.83;1.58;;;21.80;99.90;;;;;;5112645;28;20051;-81
2023/08/29 07:28:19;;;;;;;1.38;1.17;;;22.30;99.90;;;;;;5112970;28;20126;-81
2023/08/29 07:30:47;;;;;;;2.05;1.13;;;22.90;99.90;;;;;;5111843;28;20047;-81
2023/08/29 07:33:14;;;;;;;2.75;1.20;;;23.20;99.90;;;;;;5112804;28;20055;-81
2023/08/29 07:35:41;;;;;;;2.00;1.02;;;23.60;99.90;;;;;;5112718;28;20075;-80
2023/08/29 07:38:07;;;;;;;1.25;1.10;;;23.80;99.90;;;;;;5112998;28;20078;-82
2023/08/29 07:40:33;;;;;;;1.35;1.05;;;23.60;99.90;;;;;;5112708;28;20044;-80
2023/08/29 07:43:04;;;;;;;1.35;0.88;;;23.50;99.90;;;;;;5112618;28;20122;-81
2023/08/29 07:45:30;;;;;;;1.90;1.08;;;23.20;99.90;;;;;;5112949;28;20079;-77
2023/08/29 07:47:56;;;;;;;1.58;1.00;;;22.90;99.90;;;;;;5112754;28;20039;-77
2023/08/29 07:50:22;;;;;;;0.85;0.85;;;22.70;99.90;;;;;;5114648;28;20058;-77
2023/08/29 07:52:47;;;;;;;2.13;0.98;;;22.30;99.90;;;;;;5114174;28;20039;-77
2023/08/29 07:55:13;;;;;;;1.02;0.90;;;22.20;99.90;;;;;;5114374;28;20047;-76
2023/08/29 07:57:38;;;;;;;0.80;0.80;;;21.90;99.90;;;;;;5113370;28;20054;-76
2023/08/29 08:00:08;;;;;;;2.08;1.10;;;21.80;99.90;;;;;;5113074;28;20040;-77
2023/08/29 08:02:38;;;;;;;2.25;1.00;;;21.80;99.90;;;;;;5112950;28;20184;-75
2023/08/29 08:05:05;;;;;;;2.25;0.85;;;21.70;99.90;;;;;;5114602;28;20044;-76
2023/08/29 08:07:31;;;;;;;0.95;0.85;;;21.80;99.90;;;;;;5116214;28;20100;-78
2023/08/29 08:09:57;;;;;;;1.67;0.90;;;21.90;99.90;;;;;;5116261;28;20130;-73
2023/08/29 08:12:22;;;;;;;0.60;0.60;;;21.90;99.90;;;;;;5116222;28;20357;-79
2023/08/29 08:14:50;;;;;;;0.77;0.77;;;21.90;99.90;;;;;;5116381;28;20039;-75
2023/08/29 08:17:16;;;;;;;0.95;0.77;;;21.80;99.90;;;;;;5116200;28;20051;-79
2023/08/29 08:19:41;;;;;;;0.82;0.77;;;21.90;99.90;;;;;;5116415;28;20093;-75
2023/08/29 08:22:08;;;;;;;1.33;0.88;;;21.90;99.90;;;;;;5114745;28;20436;-77
2023/08/29 08:24:34;;;;;;;2.78;0.90;;;21.80;99.90;;;;;;5114961;28;20090;-80
2023/08/29 08:27:00;;;;;;;1.27;0.80;;;21.90;99.90;;;;;;5116027;28;20083;-78
2023/08/29 08:29:25;;;;;;;0.68;0.68;;;22.00;99.90;;;;;;5115403;28;20040;-80
2023/08/29 08:31:51;;;;;;;1.90;0.80;;;22.20;99.90;;;;;;5116138;28;20054;-80
2023/08/29 08:34:17;;;;;;;1.33;0.68;;;22.50;99.90;;;;;;5115963;28;20442;-80
2023/08/29 08:36:42;;;;;;;1.35;0.88;;;22.90;99.90;;;;;;5115886;27;20047;-81
2023/08/29 08:39:08;;;;;;;1.85;0.80;;;23.20;99.90;;;;;;5115309;28;20111;-81
2023/08/29 08:41:34;;;;;;;1.30;1.20;;;23.90;99.90;;;;;;5116257;28;20048;-81
2023/08/29 08:44:04;;;;;;;1.23;1.13;;;24.10;99.60;;;;;;5116225;28;20036;-80
2023/08/29 08:46:31;;;;;;;0.90;0.90;;;24.30;98.20;;;;;;5115630;28;20048;-83
2023/08/29 08:48:58;;;;;;;3.35;0.95;;;24.70;98.70;;;;;;5115674;28;20058;-81
2023/08/29 08:51:26;;;;;;;0.70;0.70;;;25.20;98.40;;;;;;5115570;28;20456;-82
2023/08/29 08:53:53;;;;;;;1.27;0.68;;;25.40;97.40;;;;;;5115579;28;20620;-80
2023/08/29 08:56:20;;;;;;;1.95;0.55;;;25.60;97.30;;;;;;5115623;28;20161;-78
2023/08/29 08:58:46;;;;;;;0.77;0.60;;;25.20;96.20;;;;;;5115523;28;20499;-78
2023/08/29 09:01:12;;;;;;;3.95;0.77;;;24.30;97.50;;;;;;5115404;28;20044;-78
2023/08/29 09:03:40;;;;;;;1.67;0.80;;;23.90;98.40;;;;;;5115295;28;20050;-78
2023/08/29 09:06:07;;;;;;;0.50;0.50;;;24.40;98.20;;;;;;5115099;28;20047;-80
2023/08/29 09:08:33;;;;;;;0.70;0.70;;;25.00;97.20;;;;;;5114127;28;20040;-80
2023/08/29 09:11:03;;;;;;;0.52;0.52;;;25.10;97.10;;;;;;5115011;28;20059;-84
2023/08/29 09:13:29;;;;;;;1.38;0.55;;;24.60;97.20;;;;;;5115142;28;20118;-83
2023/08/29 09:16:01;;;;;;;2.60;0.60;;;23.90;97.40;;;;;;5114105;28;20047;-84
2023/08/29 09:18:29;;;;;;;1.65;0.88;;;23.50;97.50;;;;;;5114785;28;20051;-84
2023/08/29 09:20:58;;;;;;;1.67;0.77;;;23.30;97.60;;;;;;5114098;28;20529;-83
2023/08/29 09:23:25;;;;;;;1.08;0.57;;;23.40;97.60;;;;;;5130589;27;20055;-84
2023/08/29 09:25:55;;;;;;;1.23;1.00;;;23.70;97.30;;;;;;5136163;27;20484;-85
2023/08/29 09:28:31;;;;;;;1.30;0.85;;;23.60;97.50;;;;;;5135569;27;20083;-83
2023/08/29 09:31:07;;;;;;;1.48;1.13;;;23.10;96.60;;;;;;5135579;27;20047;-83
2023/08/29 09:33:34;;;;;;;1.88;0.80;;;22.70;97.80;;;;;;5135618;27;20051;-83
2023/08/29 09:36:01;;;;;;;2.78;0.77;;;22.70;98.10;;;;;;5135299;27;20094;-83
2023/08/29 09:38:36;;;;;;;0.98;0.98;;;23.30;97.90;;;;;;5135204;27;20058;-83
2023/08/29 09:41:03;;;;;;;2.25;0.80;;;23.90;96.90;;;;;;5135231;27;20101;-83
2023/08/29 09:43:30;;;;;;;1.20;1.10;;;24.10;96.90;;;;;;5100410;27;20051;-83
2023/08/29 09:45:57;;;;;;;2.05;0.98;;;23.60;97.00;;;;;;5135150;27;20039;-83
2023/08/29 09:48:23;;;;;;;0.68;0.68;;;23.10;97.40;;;;;;5134531;27;20446;-84
2023/08/29 09:50:51;;;;;;;1.65;0.82;;;22.80;97.70;;;;;;5100054;27;20050;-83
2023/08/29 09:53:19;;;;;;;0.93;0.60;;;22.50;98.10;;;;;;5135632;27;20043;-82
2023/08/29 09:55:50;;;;;;;0.68;0.68;;;22.10;97.90;;;;;;5116786;27;20035;-83
2023/08/29 09:58:17;;;;;;;2.08;1.00;;;21.80;98.50;;;;;;5135896;27;20046;-82
2023/08/29 10:00:43;;;;;;;2.08;0.82;;;21.60;99.00;;;;;;5135047;27;20100;-83
2023/08/29 10:03:10;;;;;;;1.23;0.82;;;21.40;99.50;;;;;;5135247;27;20046;-79
2023/08/29 10:05:39;;;;;;;0.60;0.60;;;21.20;99.50;;;;;;5134753;27;20514;-81
2023/08/29 10:08:16;;;;;;;1.88;0.80;;;21.10;99.60;;;;;;5117279;27;20047;-82
2023/08/29 10:10:43;;;;;;;0.60;0.60;;;21.00;99.10;;;;;;5137014;27;20047;-82
2023/08/29 10:13:10;;;;;;;0.80;0.80;;;21.00;99.70;;;;;;5136906;27;20039;-82
2023/08/29 10:15:38;;;;;;;1.75;0.80;;;21.00;99.80;;;;;;5135850;27;20040;-81
2023/08/29 10:18:05;;;;;;;0.50;0.50;;;21.10;99.70;;;;;;5136508;27;20061;-81
2023/08/29 10:20:32;;;;;;;1.23;0.80;;;21.10;99.90;;;;;;5125017;27;20039;-82
2023/08/29 10:23:00;;;;;;;1.55;0.93;;;21.20;99.90;;;;;;5156806;27;20106;-81
2023/08/29 10:25:27;;;;;;;0.75;0.70;;;21.90;99.80;;;;;;5143234;27;20069;-81
2023/08/29 10:27:54;;;;;;;0.82;0.82;;;22.70;98.70;;;;;;5134966;27;20045;-81
2023/08/29 10:30:24;;;;;;;1.35;0.90;;;22.70;98.70;;;;;;5134281;27;20084;-81
2023/08/29 10:32:53;;;;;;;1.05;1.00;;;22.70;98.70;;;;;;5134291;27;20047;-79
2023/08/29 10:35:22;;;;;;;1.20;0.95;;;22.50;99.00;;;;;;5134574;27;20172;-81
2023/08/29 10:37:52;;;;;;;1.05;0.70;;;22.40;98.80;;;;;;5134101;27;20050;-82
2023/08/29 10:40:19;;;;;;;1.38;0.70;;;22.30;98.50;;;;;;5134287;27;20047;-81
2023/08/29 10:43:03;;;;;;;0.80;0.80;;;22.10;98.80;;;;;;5134111;27;20043;-81
2023/08/29 10:45:49;;;;;;;1.30;0.80;;;21.90;96.70;;;;;;5133950;27;20035;-82
2023/08/29 10:48:24;;;;;;;1.27;1.23;;;21.80;97.20;;;;;;5133997;27;20039;-82
2023/08/29 10:51:08;;;;;;;2.40;0.90;;;21.80;98.60;;;;;;5115981;27;20517;-81
2023/08/29 10:54:05;;;;;;;0.68;0.65;;;21.90;98.10;;;;;;5133933;27;20043;-81
2023/08/29 10:56:42;;;;;;;1.23;0.65;;;21.80;98.10;;;;;;5115954;27;20364;-82
2023/08/29 10:59:31;;;;;;;0.73;0.70;;;21.80;98.20;;;;;;5115811;27;20459;-82
2023/08/29 11:02:23;;;;;;;1.65;0.88;;;21.70;98.00;;;;;;5133619;27;20727;-81
2023/08/29 11:05:04;;;;;;;0.57;0.57;;;21.70;99.60;;;;;;5133548;27;20582;-82
2023/08/29 11:07:31;;;;;;;1.02;0.93;;;21.90;99.20;;;;;;5133600;27;20043;-81
2023/08/29 11:10:22;;;;;;;0.98;0.90;;;21.80;99.00;;;;;;5133601;27;20045;-81
2023/08/29 11:13:12;;;;;;;1.73;0.90;;;21.90;98.40;;;;;;5134274;28;20078;-81
2023/08/29 11:16:04;;;;;;;0.93;0.90;;;22.00;97.20;;;;;;5115921;28;20047;-81
2023/08/29 11:18:32;;;;;;;0.70;0.70;;;22.20;96.90;;;;;;5124249;28;20461;-82
2023/08/29 11:21:08;;;;;;;2.42;0.80;;;22.30;98.10;;;;;;5133753;28;20062;-82
2023/08/29 11:23:37;;;;;;;2.88;1.00;;;22.40;98.30;;;;;;5133427;28;20124;-81
2023/08/29 11:26:03;;;;;;;0.70;0.70;;;22.60;98.20;;;;;;5134116;28;20043;-81
2023/08/29 11:28:37;;;;;;;1.60;0.90;;;22.70;97.90;;;;;;5135252;28;20048;-81
2023/08/29 11:31:05;;;;;;;1.20;1.00;;;22.60;97.60;;;;;;5135215;28;20054;-81
2023/08/29 11:33:35;;;;;;;1.20;1.10;;;22.70;98.10;;;;;;5134463;28;20047;-81
2023/08/29 11:36:03;;;;;;;0.80;0.80;;;22.70;97.20;;;;;;5133919;28;20082;-82
2023/08/29 11:38:30;;;;;;;0.88;0.80;;;22.80;97.60;;;;;;5133393;27;20047;-82
2023/08/29 11:41:00;;;;;;;1.13;1.02;;;22.80;97.70;;;;;;5118684;27;20047;-82
2023/08/29 11:43:27;;;;;;;1.13;1.00;;;22.70;97.40;;;;;;5137593;27;20065;-82
2023/08/29 11:46:01;;;;;;;1.92;1.00;;;22.60;98.20;;;;;;5137745;27;20042;-82
2023/08/29 11:48:32;;;;;;;1.80;1.15;;;22.50;98.00;;;;;;5137717;27;20047;-82
2023/08/29 11:51:06;;;;;;;1.10;0.90;;;22.40;98.10;;;;;;5137684;27;20046;-82
2023/08/29 11:53:33;;;;;;;1.15;1.05;;;22.30;97.50;;;;;;5137214;27;20043;-81
2023/08/29 11:56:01;;;;;;;1.40;0.90;;;22.20;97.40;;;;;;5137909;27;20065;-82
2023/08/29 11:58:31;;;;;;;3.20;1.00;;;22.20;97.10;;;;;;5137557;27;20047;-82
2023/08/29 12:01:00;;;;;;;1.20;1.17;;;22.20;97.60;;;;;;5119078;27;20043;-82
2023/08/29 12:03:26;;;;;;;1.13;1.02;;;22.30;98.00;;;;;;5137201;27;20391;-82
2023/08/29 12:05:56;;;;;;;1.30;1.20;;;22.30;97.70;;;;;;5118302;27;20043;-82
2023/08/29 12:08:42;;;;;;;2.13;1.40;;;22.30;97.40;;;;;;5119179;27;20043;-82
2023/08/29 12:11:09;;;;;;;2.90;1.50;;;22.30;97.60;;;;;;5119446;27;20052;-82
2023/08/29 12:13:36;;;;;;;1.52;1.35;;;22.30;98.10;;;;;;5119052;27;20387;-82
2023/08/29 12:16:04;;;;;;;1.58;1.15;;;22.30;98.30;;;;;;5136858;27;20072;-81
2023/08/29 12:18:32;;;;;;;1.17;1.05;;;22.30;98.30;;;;;;5137104;27;20043;-82
2023/08/29 12:21:17;;;;;;;1.58;1.48;;;22.30;98.50;;;;;;5136693;27;20126;-82
2023/08/29 12:23:44;;;;;;;1.15;1.05;;;22.30;97.60;;;;;;5136267;27;20058;-81
2023/08/29 12:26:11;;;;;;;2.58;1.25;;;22.20;98.40;;;;;;5136524;27;20058;-82
2023/08/29 12:28:37;;;;;;;1.92;1.10;;;22.20;97.80;;;;;;5118765;27;20046;-82
2023/08/29 12:31:03;;;;;;;3.33;1.67;;;22.20;97.70;;;;;;5101497;27;20050;-82
2023/08/29 12:33:29;;;;;;;1.40;1.30;;;22.20;97.90;;;;;;5136534;27;20099;-82
2023/08/29 12:35:55;;;;;;;2.35;1.30;;;22.00;98.50;;;;;;5101210;27;20082;-82
2023/08/29 12:38:23;;;;;;;3.58;1.52;;;22.00;98.40;;;;;;5136293;27;20058;-82
2023/08/29 12:40:49;;;;;;;4.03;1.75;;;22.00;98.70;;;;;;5118945;27;20051;-81
2023/08/29 12:43:17;;;;;;;2.40;1.25;;;22.10;98.70;;;;;;5136805;27;20426;-81
2023/08/29 12:45:44;;;;;;;2.03;1.40;;;22.00;98.70;;;;;;5118327;27;20371;-81
2023/08/29 12:48:10;;;;;;;2.15;1.52;;;22.00;98.40;;;;;;5136004;27;20487;-82
2023/08/29 12:50:36;;;;;;;2.05;1.10;;;22.10;98.80;;;;;;5117392;27;20373;-82